Latest Weather Observations for Moree

IDN60801

Issued at 9:33 pm EDT Friday 6 March 2015 (issued every 30 minutes, with the page automatically refreshed every 10 minutes)

About weather observations | Map of weather stations | Latest weather observations for NSW | Other Formats
Station Details ID: 053115 Name: MOREE AERO Lat: -29.49 Lon: 149.85 Height: 213.0 m
Data from the previous 72 hours. | See also: Recent months at Moree
Date/Time
EDT
Temp
°C
App
Temp
°C
Dew
Point
Rel
Hum
%
Delta-T
°C
Wind Press
QNH
hPa
Press
MSL
hPa
Rain
since 9 am
mm
Dir
 
Spd
km/h
Gust
km/h
Spd
kts
Gust
kts
06/09:30pm 22.2 17.4 -2.5 19 10.7 SW 13 13 7 7 1009.3 1008.2 0.0
06/09:00pm 22.8 18.0 -2.7 18 11.1 SW 13 15 7 8 1008.9 1007.8 0.0
06/08:30pm 24.0 18.4 -3.3 16 11.8 SW 17 19 9 10 1008.6 1007.5 0.0
06/08:00pm 25.0 19.0 -3.4 15 12.4 SW 19 20 10 11 1008.2 1007.1 0.0
06/07:30pm 26.4 19.1 -3.2 14 13.2 SW 26 33 14 18 1007.9 1006.8 0.0
06/07:00pm 27.8 19.2 -4.2 12 14.1 SW 32 39 17 21 1007.6 1006.5 0.0
06/06:30pm 28.7 20.1 -4.6 11 14.7 SW 32 37 17 20 1007.4 1006.3 0.0
06/06:00pm 28.9 21.0 -4.5 11 14.8 SW 28 37 15 20 1007.2 1006.1 0.0
06/05:30pm 29.4 20.7 -5.4 10 15.2 SW 32 39 17 21 1007.2 1006.1 0.0
06/05:00pm 30.3 22.2 -3.4 11 15.4 SW 30 37 16 20 1007.1 1006.0 0.0
06/04:30pm 29.7 22.3 -3.9 11 15.1 WSW 26 37 14 20 1007.1 1006.0 0.0
06/04:00pm 30.1 22.6 -1.3 13 14.9 SW 28 39 15 21 1007.5 1006.4 0.0
06/03:30pm 29.4 22.9 0.1 15 14.1 SW 24 41 13 22 1007.7 1006.6 0.0
06/03:00pm 29.5 23.7 0.2 15 14.2 SW 20 37 11 20 1008.1 1007.0 0.0
06/02:30pm 30.5 25.0 1.9 16 14.3 SW 20 32 11 17 1008.6 1007.5 0.0
06/02:00pm 29.1 23.4 0.7 16 13.8 WSW 20 32 11 17 1009.1 1008.0 0.0
06/01:30pm 29.2 23.9 3.2 19 13.2 SW 20 30 11 16 1009.3 1008.2 0.0
06/01:00pm 28.3 23.3 4.6 22 12.3 W 20 35 11 19 1009.7 1008.6 0.0
06/12:30pm 27.4 24.0 3.8 22 12.0 W 11 17 6 9 1010.0 1008.9 0.0
06/12:00pm 26.8 23.1 4.6 24 11.4 WSW 13 20 7 11 1010.5 1009.4 0.0
06/11:30am 25.4 22.4 6.1 29 10.1 WSW 11 17 6 9 1011.2 1010.2 0.0
06/11:00am 24.6 21.6 5.9 30 9.7 S 11 19 6 10 1011.4 1010.4 0.0
06/10:30am 23.6 19.5 6.4 33 8.9 S 17 20 9 11 1011.4 1010.4 0.0
06/10:00am 22.5 18.2 7.1 37 8.0 S 19 24 10 13 1011.4 1010.4 0.0
06/09:30am 20.9 15.4 4.0 33 8.2 SSW 22 28 12 15 1011.6 1010.6 0.0
06/09:00am 19.3 12.4 2.6 33 7.8 SSW 28 32 15 17 1011.4 1010.4 0.0
06/08:30am 16.9 11.1 -0.3 31 7.4 SSW 20 26 11 14 1011.2 1010.2 0.0
06/08:00am 14.4 10.1 -1.6 33 6.6 SW 11 15 6 8 1011.0 1010.0 0.0
06/07:30am 15.0 9.5 -2.0 31 7.0 SW 17 19 9 10 1010.8 1009.7 0.0
06/07:00am 15.4 10.3 -2.1 30 7.2 SW 15 19 8 10 1010.4 1009.3 0.0
06/06:30am 15.8 10.4 -1.7 30 7.3 SW 17 22 9 12 1010.3 1009.2 0.0
06/06:00am 16.2 10.7 -1.8 29 7.5 SW 17 22 9 12 1010.1 1009.0 0.0
06/05:30am 16.6 10.7 -2.0 28 7.7 SW 19 26 10 14 1009.9 1008.8 0.0
06/05:00am 17.1 11.7 -1.1 29 7.8 SW 17 19 9 10 1009.7 1008.6 0.0
06/04:30am 17.7 12.7 -1.0 28 8.0 SSW 15 17 8 9 1009.8 1008.7 0.0
06/04:00am 18.1 12.2 -0.7 28 8.2 SW 20 26 11 14 1009.7 1008.6 0.0
06/03:30am 18.8 13.5 -0.6 27 8.5 SW 17 20 9 11 1009.6 1008.5 0.0
06/03:00am 19.1 13.7 1.1 30 8.2 SW 19 26 10 14 1009.8 1008.7 0.0
06/02:30am 19.7 14.3 1.2 29 8.4 SW 19 24 10 13 1010.1 1009.0 0.0
06/02:00am 20.4 14.9 1.8 29 8.7 SW 20 28 11 15 1010.4 1009.3 0.0
06/01:30am 20.6 15.4 2.4 30 8.6 SW 19 26 10 14 1010.8 1009.7 0.0
06/01:00am 21.2 15.8 2.5 29 8.9 SSW 20 28 11 15 1010.8 1009.7 0.0
06/12:30am 21.6 15.9 2.8 29 9.0 SW 22 30 12 16 1010.7 1009.6 0.0
06/12:00am 22.3 16.3 3.4 29 9.2 SW 24 32 13 17 1010.7 1009.6 0.0
 
Date/Time
EDT
Temp
°C
App
Temp
°C
Dew
Point
Rel
Hum
%
Delta-T
°C
Wind Press
QNH
hPa
Press
MSL
hPa
Rain
since 9 am
mm
Dir
 
Spd
km/h
Gust
km/h
Spd
kts
Gust
kts
05/11:30pm 22.9 16.5 3.4 28 9.5 SW 26 35 14 19 1010.5 1009.4 0.0
05/11:00pm 23.1 17.1 3.6 28 9.6 SW 24 28 13 15 1010.5 1009.4 0.0
05/10:30pm 23.4 17.1 3.9 28 9.6 SW 26 32 14 17 1010.4 1009.3 0.0
05/10:00pm 23.3 18.7 3.8 28 9.6 SW 17 22 9 12 1010.2 1009.1 0.0
05/09:30pm 24.2 18.6 3.5 26 10.2 SW 22 28 12 15 1009.8 1008.7 0.0
05/09:00pm 24.8 19.2 3.5 25 10.6 SW 22 30 12 16 1009.6 1008.5 0.0
05/08:30pm 25.6 20.2 2.3 22 11.4 SW 20 26 11 14 1009.3 1008.2 0.0
05/08:00pm 27.1 20.5 2.2 20 12.3 SW 26 33 14 18 1008.7 1007.6 0.0
05/07:30pm 28.2 21.3 2.4 19 12.8 SW 28 35 15 19 1008.4 1007.3 0.0
05/07:00pm 29.7 22.0 2.1 17 13.8 SW 32 39 17 21 1008.0 1006.9 0.0
05/06:30pm 30.8 22.7 1.2 15 14.7 SW 33 41 18 22 1007.8 1006.7 0.0
05/06:00pm 31.4 23.0 1.7 15 14.9 WSW 35 48 19 26 1007.6 1006.5 0.0
05/05:30pm 32.1 23.4 2.2 15 15.2 SW 37 50 20 27 1007.7 1006.6 0.0
05/05:00pm 32.4 23.6 1.5 14 15.6 SW 37 52 20 28 1007.6 1006.5 0.0
05/04:30pm 32.4 24.0 1.5 14 15.5 SW 35 48 19 26 1007.9 1006.8 0.0
05/04:09pm 33.0 24.7 2.0 14 15.8 SW 35 54 19 29 1007.9 1006.8 0.0
05/04:00pm 32.7 23.4 0.7 13 15.9 SW 39 54 21 29 1008.0 1006.9 0.0
05/03:30pm 32.8 23.7 -0.3 12 16.2 SW 37 52 20 28 1008.1 1007.0 0.0
05/03:18pm 33.0 24.0 -0.2 12 16.3 WSW 37 57 20 31 1008.2 1007.1 0.0
05/03:00pm 33.0 24.4 -2.6 10 16.8 SW 33 50 18 27 1008.5 1007.4 0.0
05/02:54pm 32.9 23.9 -2.7 10 16.7 SW 35 54 19 29 1008.6 1007.5 0.0
05/02:30pm 33.0 23.6 -2.6 10 16.8 SW 37 50 20 27 1008.8 1007.7 0.0
05/02:00pm 32.1 23.0 4.0 17 14.7 WSW 41 54 22 29 1008.9 1007.8 0.0
05/01:30pm 32.1 23.5 4.8 18 14.5 SW 39 54 21 29 1009.3 1008.2 0.0
05/01:14pm 32.2 24.0 4.9 18 14.5 SW 37 56 20 30 1009.5 1008.4 0.0
05/01:00pm 32.1 23.1 4.8 18 14.5 SW 41 50 22 27 1009.7 1008.6 0.0
05/12:30pm 31.9 24.0 6.2 20 13.9 SW 37 52 20 28 1010.0 1008.9 0.0
05/12:00pm 31.9 24.9 6.9 21 13.7 SW 33 46 18 25 1010.4 1009.3 0.0
05/11:30am 30.9 23.8 5.3 20 13.6 SW 32 41 17 22 1010.7 1009.6 0.0
05/11:00am 30.6 23.8 5.1 20 13.5 SSW 30 37 16 20 1010.7 1009.6 0.0
05/10:30am 30.5 22.7 5.0 20 13.4 SSW 35 48 19 26 1010.5 1009.4 0.0
05/10:00am 30.1 22.7 4.0 19 13.5 SSW 32 41 17 22 1010.5 1009.4 0.0
05/09:30am 29.3 22.8 4.7 21 12.8 SSW 28 35 15 19 1010.3 1009.2 0.0
05/09:00am 28.2 22.8 6.3 25 11.7 SSW 24 33 13 18 1010.2 1009.1 0.0
05/08:30am 26.4 21.9 6.9 29 10.4 SSW 20 28 11 15 1009.9 1008.8 0.0
05/08:00am 23.5 20.8 8.8 39 8.0 SW 13 19 7 10 1009.6 1008.5 0.0
05/07:30am 22.0 18.8 8.5 42 7.2 SW 15 19 8 10 1009.3 1008.2 0.0
05/07:00am 21.4 17.9 8.7 44 6.8 SW 17 19 9 10 1009.1 1008.0 0.0
05/06:30am 21.1 18.5 9.4 47 6.3 WSW 13 17 7 9 1008.4 1007.3 0.0
05/06:00am 21.4 18.9 9.6 47 6.4 WSW 13 15 7 8 1008.0 1006.9 0.0
05/05:30am 22.2 19.3 9.7 45 6.8 W 15 17 8 9 1007.9 1006.8 0.0
05/05:00am 22.9 21.3 10.3 45 7.0 W 9 11 5 6 1007.5 1006.4 0.0
05/04:30am 22.8 21.4 10.9 47 6.7 W 9 11 5 6 1007.6 1006.5 0.0
05/04:00am 24.1 22.6 10.7 43 7.5 W 9 11 5 6 1007.7 1006.6 0.0
05/03:30am 23.4 23.9 11.5 47 6.7 CALM 0 0 0 0 1007.9 1006.8 0.0
05/03:00am 24.0 24.7 12.3 48 6.8 CALM 0 0 0 0 1008.0 1006.9 0.0
05/02:30am 24.4 25.4 13.3 50 6.5 CALM 0 0 0 0 1008.3 1007.2 0.0
05/02:00am 25.1 26.0 13.0 47 7.1 CALM 0 0 0 0 1008.5 1007.4 0.0
05/01:30am 25.7 26.5 12.5 44 7.7 CALM 0 0 0 0 1008.8 1007.7 0.0
05/01:00am 26.7 27.5 12.4 41 8.4 CALM 0 0 0 0 1009.1 1008.0 0.0
05/12:30am 26.1 27.1 13.2 44 7.6 CALM 0 0 0 0 1009.2 1008.1 0.0
05/12:00am 26.9 27.5 11.8 39 8.8 CALM 0 0 0 0 1009.3 1008.2 0.0
 
Date/Time
EDT
Temp
°C
App
Temp
°C
Dew
Point
Rel
Hum
%
Delta-T
°C
Wind Press
QNH
hPa
Press
MSL
hPa
Rain
since 9 am
mm
Dir
 
Spd
km/h
Gust
km/h
Spd
kts
Gust
kts
04/11:30pm 28.6 28.5 9.3 30 10.8 CALM 0 0 0 0 1009.3 1008.2 0.0
04/11:00pm 30.6 30.8 10.5 29 11.6 CALM 0 0 0 0 1009.3 1008.2 0.0
04/10:30pm 31.5 31.2 10.2 27 12.3 SW 2 7 1 4 1009.4 1008.3 0.0
04/10:00pm 30.3 30.7 11.3 31 11.1 CALM 0 11 0 6 1009.3 1008.2 0.0
04/09:30pm 31.9 32.4 11.7 29 11.9 CALM 0 0 0 0 1009.2 1008.1 0.0
04/09:00pm 31.6 32.4 12.4 31 11.5 CALM 0 0 0 0 1008.9 1007.8 0.0
04/08:30pm 33.7 32.6 12.1 27 12.9 SW 9 11 5 6 1008.6 1007.5 0.0
04/08:00pm 33.9 33.8 13.4 29 12.5 NNW 6 11 3 6 1008.2 1007.1 0.0
04/07:30pm 35.5 34.4 13.1 26 13.7 N 11 15 6 8 1007.9 1006.8 0.0
04/07:00pm 36.3 34.8 13.1 25 14.3 NNW 13 19 7 10 1007.8 1006.7 0.0
04/06:30pm 36.9 35.4 13.0 24 14.7 NNW 13 20 7 11 1007.7 1006.6 0.0
04/06:00pm 38.0 34.9 13.3 23 15.3 WNW 22 30 12 16 1007.8 1006.7 0.0
04/05:30pm 38.2 36.0 13.4 23 15.4 WNW 17 30 9 16 1008.0 1006.9 0.0
04/05:00pm 37.6 34.3 12.9 23 15.2 NW 22 32 12 17 1008.3 1007.2 0.0
04/04:30pm 37.5 33.4 12.8 22 15.2 NW 26 39 14 21 1008.5 1007.4 0.0
04/04:00pm 37.1 33.5 13.2 24 14.8 NW 24 35 13 19 1009.1 1008.0 0.0
04/03:30pm 37.5 33.7 13.5 24 14.9 WNW 26 37 14 20 1009.7 1008.6 0.0
04/03:00pm 36.5 33.7 13.3 25 14.3 NW 20 37 11 20 1010.2 1009.1 0.0
04/02:30pm 36.8 33.3 13.5 24 14.4 NNW 24 35 13 19 1010.8 1009.7 0.0
04/02:00pm 35.7 32.7 13.8 27 13.6 NNW 22 37 12 20 1011.4 1010.4 0.0
04/01:30pm 35.2 32.8 14.5 29 12.9 NNW 20 32 11 17 1012.1 1011.0 0.0
04/01:00pm 33.9 31.3 14.9 32 11.9 NNW 22 32 12 17 1012.9 1011.8 0.0
04/12:30pm 32.8 30.2 14.9 34 11.1 N 22 33 12 18 1013.5 1012.4 0.0
04/12:00pm 32.2 30.1 15.2 35 10.6 NNW 20 32 11 17 1014.1 1013.0 0.0
04/11:30am 31.7 29.0 15.6 37 10.1 N 24 33 13 18 1014.5 1013.4 0.0
04/11:00am 31.2 28.6 16.0 40 9.6 NNW 24 33 13 18 1014.8 1013.7 0.0
04/10:30am 29.8 27.1 15.5 42 8.9 N 24 33 13 18 1014.8 1013.7 0.0
04/10:00am 29.2 26.4 16.4 46 8.0 N 26 33 14 18 1014.8 1013.7 0.0
04/09:30am 28.2 25.8 16.5 49 7.3 N 24 33 13 18 1014.7 1013.6 0.0
04/09:00am 27.2 25.0 16.8 53 6.5 N 24 37 13 20 1014.6 1013.5 0.0
04/08:30am 26.1 23.9 16.9 57 5.8 NNE 24 30 13 16 1014.2 1013.1 0.0
04/08:00am 25.0 23.5 16.7 60 5.2 NNE 20 32 11 17 1014.0 1012.9 0.0
04/07:30am 23.9 22.8 17.2 66 4.2 NE 19 22 10 12 1013.6 1012.5 0.0
04/07:00am 23.7 22.9 17.0 66 4.2 NE 17 22 9 12 1013.3 1012.2 0.0
04/06:30am 24.2 23.0 17.0 64 4.5 NNE 19 28 10 15 1012.9 1011.8 0.0
04/06:00am 24.5 22.7 17.0 63 4.7 NNE 22 30 12 16 1012.5 1011.4 0.0
04/05:30am 24.4 22.6 16.9 63 4.7 NNE 22 28 12 15 1012.3 1011.2 0.0
04/05:00am 24.7 22.9 16.9 62 4.9 NNE 22 32 12 17 1012.2 1011.1 0.0
04/04:30am 25.0 22.8 17.0 61 5.0 NNE 24 30 13 16 1012.1 1011.0 0.0
04/04:00am 25.3 23.1 17.0 60 5.2 NNE 24 30 13 16 1012.1 1011.0 0.0
04/03:30am 25.6 22.7 17.0 59 5.4 NNE 28 35 15 19 1012.1 1011.0 0.0
04/03:00am 26.0 23.1 17.1 58 5.6 NNE 28 35 15 19 1012.0 1010.9 0.0
04/02:30am 26.3 23.0 17.1 57 5.8 NNE 30 39 16 21 1012.1 1011.0 0.0
04/02:00am 26.7 23.4 16.9 55 6.2 NNE 30 39 16 21 1012.2 1011.1 0.0
04/01:30am 27.2 24.7 16.2 51 6.8 NNE 24 35 13 19 1012.2 1011.1 0.0
04/01:00am 27.7 26.9 16.0 49 7.3 N 15 19 8 10 1011.9 1010.8 0.0
04/12:30am 27.5 26.2 15.8 48 7.2 NNE 17 19 9 10 1011.9 1010.8 0.0
04/12:00am 27.9 26.6 15.9 48 7.5 NNE 17 19 9 10 1012.1 1011.0 0.0
 
Date/Time
EDT
Temp
°C
App
Temp
°C
Dew
Point
Rel
Hum
%
Delta-T
°C
Wind Press
QNH
hPa
Press
MSL
hPa
Rain
since 9 am
mm
Dir
 
Spd
km/h
Gust
km/h
Spd
kts
Gust
kts
03/11:30pm 28.6 27.2 15.5 45 8.1 NNE 17 19 9 10 1012.2 1011.1 0.0
03/11:00pm 29.1 28.0 15.2 42 8.6 NNE 15 19 8 10 1012.3 1011.2 0.0
03/10:30pm 29.5 28.0 15.2 41 8.8 NNE 17 20 9 11 1012.5 1011.4 0.0
03/10:00pm 29.5 28.0 15.2 41 8.8 ENE 17 22 9 12 1012.5 1011.4 0.0

Other Formats:

Comma delimited format used in spreadsheet applications
http://www.bom.gov.au/fwo/IDN60801/IDN60801.95527.axf

JavaScript Object Notation format (JSON) in row-major order
http://www.bom.gov.au/fwo/IDN60801/IDN60801.95527.json